KGEZ

Shelbyville Municipal Airport

Shelbyville, Indiana, USA
METAR KGEZ 141253Z AUTO 00000KT 7SM FEW085 22/19 A3004 RMK AO2 SLP168 T02170194
Observed Flight Rules
Aug-14 @ 12:53 UTC (48 minutes ago) Visual Flight Rules
Visibility Clouds
7 miles
  • Few at 8,500' AGL
Temperatures Readings
Current 22°C / 72°F
Dewpoint 19°C / 66°F
Humidity 83%
Altimeter 30.04" Hg
Pressure 1016.8 hPa
Elevation 245
METAR KGEZ 141253Z AUTO 00000KT 7SM FEW085 22/19 A3004 RMK AO2 SLP168 T02170194
Observed Flight Rules
Aug-14 @ 12:53 UTC
(48 minutes ago)
VFR
Clouds
  • Few at 8,500' AGL
Temperature Dewpoint
22°C / 72°F 19°C / 66°F
Humidity Altimeter Pressure
83% 30.04" Hg 1016.8 hPa